Gilgit Weather



Gilgit's Current Weather

Temprature 35.7o few clouds

few clouds

Rain: 0 %

Min Temprature35.7o
Max Temprature35.7o
Humidity25
Wind Speed0.95 m/h
Sun Rise05:03:52
Sun Set19:14:20
Current Time: 24-Jul-2021 15:09:18
Lat/Lon: 35.9221, 74.3087




Gilgit's Geo Location



Gilgit's Weather Forecast

Time Overall Temp Min Temp Max Temp Humidity Wind Speed Rain
24-Jul-2021 (Sat)
17:00:00 clear sky 35.570 35.570 35.990 25 1.11 m/h 0 %
20:00:00 clear sky 34.620 34.250 34.620 31 0.88 m/h 0 %
23:00:00 clear sky 32.210 32.210 32.210 37 0.31 m/h 0 %
25-Jul-2021 (Sun)
02:00:00 clear sky 30.550 30.550 30.550 41 0.36 m/h 0 %
05:00:00 clear sky 29.000 29.000 29.000 44 0.66 m/h 0 %
08:00:00 broken clouds 32.050 32.050 32.050 35 0.38 m/h 0 %
11:00:00 broken clouds 35.430 35.430 35.430 29 0.49 m/h 0 %
14:00:00 clear sky 38.250 38.250 38.250 24 0.97 m/h 0 %
17:00:00 clear sky 38.970 38.970 38.970 23 0.9 m/h 0 %
20:00:00 broken clouds 36.710 36.710 36.710 33 0.93 m/h 0 %
23:00:00 broken clouds 34.500 34.500 34.500 38 0.48 m/h 0 %
26-Jul-2021 (Mon)
02:00:00 broken clouds 32.360 32.360 32.360 43 1.01 m/h 0 %
05:00:00 scattered clouds 30.320 30.320 30.320 49 1.14 m/h 0 %
08:00:00 clear sky 32.820 32.820 32.820 41 0.83 m/h 0 %
11:00:00 clear sky 36.430 36.430 36.430 28 0.61 m/h 0 %
14:00:00 clear sky 39.130 39.130 39.130 22 0.81 m/h 0 %
17:00:00 clear sky 39.820 39.820 39.820 20 1.13 m/h 0 %
20:00:00 clear sky 37.270 37.270 37.270 29 1.98 m/h 0 %
23:00:00 clear sky 34.520 34.520 34.520 42 1.54 m/h 0 %
27-Jul-2021 (Tue)
02:00:00 clear sky 32.290 32.290 32.290 50 1.61 m/h 0 %
05:00:00 clear sky 30.130 30.130 30.130 57 1.55 m/h 0 %
08:00:00 light rain 31.780 31.780 31.780 52 1.33 m/h 22 %
11:00:00 clear sky 35.740 35.740 35.740 36 0.96 m/h 0 %
14:00:00 clear sky 38.690 38.690 38.690 25 0.92 m/h 0 %
17:00:00 light rain 39.340 39.340 39.340 23 1.09 m/h 14 %
20:00:00 light rain 36.510 36.510 36.510 37 2.42 m/h 10 %
23:00:00 light rain 34.150 34.150 34.150 44 1.42 m/h 13 %
28-Jul-2021 (Wed)
02:00:00 light rain 31.680 31.680 31.680 49 0.93 m/h 87 %
05:00:00 light rain 29.670 29.670 29.670 59 1.35 m/h 143 %
08:00:00 light rain 29.730 29.730 29.730 58 0.53 m/h 113 %
11:00:00 light rain 33.790 33.790 33.790 43 1.59 m/h 99 %
14:00:00 light rain 36.270 36.270 36.270 34 1.05 m/h 100 %
17:00:00 moderate rain 29.000 29.000 29.000 61 3.36 m/h 602 %
20:00:00 light rain 27.610 27.610 27.610 63 1.33 m/h 228 %
23:00:00 light rain 27.490 27.490 27.490 63 0.37 m/h 41 %
29-Jul-2021 (Thu)
02:00:00 light rain 27.000 27.000 27.000 65 0.63 m/h 41 %
05:00:00 light rain 26.410 26.410 26.410 68 0.93 m/h 51 %
08:00:00 light rain 28.120 28.120 28.120 60 0.95 m/h 36 %
11:00:00 light rain 32.110 32.110 32.110 44 1.22 m/h 92 %
14:00:00 light rain 34.810 34.810 34.810 36 1.57 m/h 70 %

Famous Cities (60)